createdAt,value
2023-05-24T00:00:24.341Z,13.26
2023-05-24T00:03:35.192Z,13.24
2023-05-24T00:06:40.602Z,13.31
2023-05-24T00:09:45.703Z,13.26
2023-05-24T00:12:50.976Z,13.26
2023-05-24T00:15:56.062Z,13.16
2023-05-24T00:19:02.621Z,12.93
2023-05-24T00:22:07.779Z,13.02
2023-05-24T00:25:13.005Z,13.03
2023-05-24T00:28:18.119Z,13.00
2023-05-24T00:31:23.800Z,13.02
2023-05-24T00:34:30.282Z,12.93
2023-05-24T00:37:35.398Z,12.82
2023-05-24T00:40:40.828Z,12.82
2023-05-24T00:43:46.247Z,12.82
2023-05-24T00:46:51.841Z,12.80
2023-05-24T00:49:58.629Z,12.84
2023-05-24T00:53:05.120Z,12.73
2023-05-24T00:56:14.404Z,12.76
2023-05-24T00:59:19.567Z,12.74
2023-05-24T01:02:25.527Z,12.59
2023-05-24T01:05:32.318Z,12.57
2023-05-24T01:08:49.821Z,12.83
2023-05-24T01:12:03.637Z,12.62
2023-05-24T01:15:13.213Z,12.61
2023-05-24T01:18:22.275Z,12.50
2023-05-24T01:21:39.853Z,12.43
2023-05-24T01:24:57.618Z,12.47
2023-05-24T01:28:04.421Z,12.35
2023-05-24T01:31:10.804Z,12.22
2023-05-24T01:34:15.936Z,12.19
2023-05-24T01:37:21.251Z,12.32
2023-05-24T01:40:26.541Z,12.25
2023-05-24T01:43:37.214Z,12.13
2023-05-24T01:46:42.533Z,12.19
2023-05-24T01:49:54.952Z,12.25
2023-05-24T01:53:06.835Z,12.16
2023-05-24T01:56:13.462Z,12.22
2023-05-24T01:59:20.586Z,12.10
2023-05-24T02:02:25.897Z,12.09
2023-05-24T02:05:31.117Z,11.97
2023-05-24T02:08:36.263Z,12.08
2023-05-24T02:11:41.408Z,12.13
2023-05-24T02:14:51.178Z,12.18
2023-05-24T02:17:56.410Z,12.35
2023-05-24T02:21:01.951Z,12.19
2023-05-24T02:24:07.902Z,11.98
2023-05-24T02:27:13.726Z,11.99
2023-05-24T02:30:20.325Z,12.00
2023-05-24T02:33:26.444Z,12.09
2023-05-24T02:36:34.513Z,12.00
2023-05-24T02:39:39.631Z,12.02
2023-05-24T02:42:44.857Z,11.92
2023-05-24T02:45:51.545Z,12.13
2023-05-24T02:48:56.742Z,12.24
2023-05-24T02:52:02.412Z,12.21
2023-05-24T02:55:08.856Z,11.88
2023-05-24T02:58:14.720Z,12.10
2023-05-24T03:01:21.855Z,12.13
2023-05-24T03:04:29.059Z,12.11
2023-05-24T03:07:34.118Z,12.12
2023-05-24T03:10:39.217Z,12.02
2023-05-24T03:13:45.570Z,12.14
2023-05-24T03:16:52.309Z,12.20
2023-05-24T03:19:57.456Z,12.27
2023-05-24T03:23:02.595Z,12.32
2023-05-24T03:26:08.507Z,12.38
2023-05-24T03:29:13.669Z,12.32
2023-05-24T03:32:22.331Z,12.35
2023-05-24T03:35:27.507Z,12.35
2023-05-24T03:38:34.889Z,12.39
2023-05-24T03:41:40.101Z,12.45
2023-05-24T03:44:45.255Z,12.48
2023-05-24T03:47:51.822Z,12.47
2023-05-24T03:50:57.208Z,12.44
2023-05-24T03:54:02.375Z,12.58
2023-05-24T03:57:07.962Z,12.60
2023-05-24T04:00:16.056Z,12.66
2023-05-24T04:03:27.240Z,12.76
2023-05-24T04:06:33.674Z,12.81
2023-05-24T04:09:38.928Z,12.83
2023-05-24T04:12:44.043Z,12.92
2023-05-24T04:15:49.167Z,12.93
2023-05-24T04:18:56.062Z,13.04
2023-05-24T04:22:01.220Z,13.11
2023-05-24T04:25:07.858Z,13.08
2023-05-24T04:28:15.653Z,13.20
2023-05-24T04:31:21.404Z,13.34
2023-05-24T04:34:29.915Z,13.34
2023-05-24T04:37:35.408Z,13.46
2023-05-24T04:40:40.840Z,13.54
2023-05-24T04:43:46.110Z,13.66
2023-05-24T04:46:51.257Z,13.71
2023-05-24T04:49:58.150Z,13.85
2023-05-24T04:53:03.449Z,13.89
2023-05-24T04:56:08.752Z,14.00
2023-05-24T04:59:15.522Z,14.07
2023-05-24T05:02:21.784Z,14.08
2023-05-24T05:05:28.555Z,14.13
2023-05-24T05:08:35.013Z,14.23
2023-05-24T05:11:40.394Z,14.33
2023-05-24T05:14:45.506Z,14.45
2023-05-24T05:17:51.252Z,14.40
2023-05-24T05:20:58.414Z,14.54
2023-05-24T05:24:03.905Z,14.64
2023-05-24T05:27:09.033Z,14.77
2023-05-24T05:30:14.952Z,14.92
2023-05-24T05:33:20.247Z,14.96
2023-05-24T05:36:26.954Z,15.13
2023-05-24T05:39:32.061Z,15.44
2023-05-24T05:42:37.537Z,15.81
2023-05-24T05:45:42.743Z,16.07
2023-05-24T05:48:47.958Z,16.16
2023-05-24T05:51:54.834Z,16.40
2023-05-24T05:55:00.803Z,16.63
2023-05-24T05:58:06.155Z,16.61
2023-05-24T06:01:14.209Z,16.68
2023-05-24T06:04:19.448Z,16.83
2023-05-24T06:07:26.384Z,16.89
2023-05-24T06:10:31.534Z,16.92
2023-05-24T06:13:36.693Z,16.94
2023-05-24T06:16:43.810Z,17.08
2023-05-24T06:19:49.195Z,17.22
2023-05-24T06:22:57.355Z,17.24
2023-05-24T06:26:02.676Z,17.25
2023-05-24T06:29:08.434Z,17.47
2023-05-24T06:32:14.110Z,17.51
2023-05-24T06:35:19.354Z,17.54
2023-05-24T06:38:26.242Z,17.62
2023-05-24T06:41:31.434Z,17.78
2023-05-24T06:44:36.740Z,17.86
2023-05-24T06:47:42.047Z,18.03
2023-05-24T06:50:48.193Z,17.97
2023-05-24T06:53:54.896Z,18.37
2023-05-24T06:57:00.203Z,18.33
2023-05-24T07:00:10.080Z,18.50
2023-05-24T07:03:16.264Z,18.64
2023-05-24T07:06:22.037Z,18.63
2023-05-24T07:09:29.021Z,18.91
2023-05-24T07:12:34.798Z,18.83
2023-05-24T07:15:40.002Z,18.98
2023-05-24T07:18:45.177Z,18.94
2023-05-24T07:21:50.728Z,18.94
2023-05-24T07:24:57.637Z,19.05
2023-05-24T07:28:02.876Z,19.17
2023-05-24T07:31:10.158Z,18.90
2023-05-24T07:34:15.347Z,19.10
2023-05-24T07:37:20.643Z,19.24
2023-05-24T07:40:27.576Z,19.35
2023-05-24T07:43:32.688Z,19.49
2023-05-24T07:46:38.085Z,19.63
2023-05-24T07:49:43.354Z,19.60
2023-05-24T07:52:48.549Z,19.73
2023-05-24T07:55:55.234Z,19.84
2023-05-24T07:59:04.493Z,20.00
2023-05-24T08:02:11.661Z,20.08
2023-05-24T08:05:17.895Z,20.18
2023-05-24T08:08:23.333Z,20.27
2023-05-24T08:11:30.013Z,20.37
2023-05-24T08:14:35.529Z,20.36
2023-05-24T08:17:41.457Z,20.44
2023-05-24T08:20:46.944Z,20.27
2023-05-24T08:23:52.280Z,20.28
2023-05-24T08:26:59.266Z,20.37
2023-05-24T08:30:05.192Z,20.25
2023-05-24T08:33:12.999Z,20.30
2023-05-24T08:36:18.335Z,20.32
2023-05-24T08:39:23.875Z,20.34
2023-05-24T08:42:31.013Z,20.27
2023-05-24T08:45:39.298Z,20.32
2023-05-24T08:48:47.897Z,20.48
2023-05-24T08:51:54.329Z,20.54
2023-05-24T08:55:00.829Z,20.59
2023-05-24T08:58:08.058Z,20.56
2023-05-24T09:01:14.701Z,20.54
2023-05-24T09:04:20.427Z,20.58
2023-05-24T09:07:25.984Z,20.62
2023-05-24T09:10:41.248Z,20.65
2023-05-24T09:13:58.461Z,20.72
2023-05-24T09:17:04.687Z,20.88
2023-05-24T09:20:11.939Z,20.80
2023-05-24T09:23:18.667Z,20.64
2023-05-24T09:26:24.914Z,20.54
2023-05-24T09:29:31.506Z,20.73
2023-05-24T09:32:36.745Z,20.77
2023-05-24T09:35:44.707Z,20.91
2023-05-24T09:38:50.192Z,20.99
2023-05-24T09:41:57.468Z,21.00
2023-05-24T09:45:07.094Z,21.09
2023-05-24T09:48:17.390Z,21.17
2023-05-24T09:51:23.973Z,21.14
2023-05-24T09:54:29.270Z,21.22
2023-05-24T09:57:34.407Z,21.28
2023-05-24T10:00:43.272Z,21.32
2023-05-24T10:03:55.787Z,21.47
2023-05-24T10:07:01.101Z,21.56
2023-05-24T10:10:08.078Z,21.59
2023-05-24T10:13:15.985Z,21.56
2023-05-24T10:16:24.417Z,21.59
2023-05-24T10:19:29.629Z,21.58
2023-05-24T10:22:35.401Z,21.68
2023-05-24T10:25:48.382Z,21.66
2023-05-24T10:28:56.628Z,21.67
2023-05-24T10:32:04.595Z,21.75
2023-05-24T10:35:12.317Z,21.76
2023-05-24T10:38:17.554Z,21.84
2023-05-24T10:41:23.000Z,22.00
2023-05-24T10:44:31.969Z,22.07
2023-05-24T10:47:40.318Z,22.21
2023-05-24T10:50:46.188Z,22.15
2023-05-24T10:53:52.213Z,22.25
2023-05-24T10:56:59.036Z,22.34
2023-05-24T11:03:40.017Z,22.35
2023-05-24T11:06:49.916Z,22.50
2023-05-24T11:10:02.703Z,22.45
2023-05-24T11:13:10.023Z,22.50
2023-05-24T11:16:35.287Z,22.47
2023-05-24T11:19:48.856Z,22.62
2023-05-24T11:22:54.978Z,22.57
2023-05-24T11:26:00.139Z,22.75
2023-05-24T11:29:06.355Z,22.85
2023-05-24T11:32:17.246Z,22.89
2023-05-24T11:35:27.856Z,22.88
2023-05-24T11:38:34.937Z,22.96
2023-05-24T11:41:40.640Z,23.02
2023-05-24T11:44:45.862Z,23.07
2023-05-24T11:47:51.184Z,23.20
2023-05-24T11:50:58.312Z,23.13
2023-05-24T11:54:03.480Z,23.24
2023-05-24T11:57:10.225Z,23.24
2023-05-24T12:00:19.095Z,23.24
2023-05-24T12:03:24.984Z,23.27
2023-05-24T12:06:41.774Z,23.48
2023-05-24T12:09:46.991Z,23.44
2023-05-24T12:12:52.103Z,23.54
2023-05-24T12:15:58.291Z,23.54
2023-05-24T12:19:09.450Z,23.63
2023-05-24T12:22:18.915Z,23.61
2023-05-24T12:25:27.155Z,23.80
2023-05-24T12:28:37.058Z,23.80
2023-05-24T12:31:43.156Z,23.94
2023-05-24T12:34:50.554Z,23.97
2023-05-24T12:38:02.225Z,24.07
2023-05-24T12:41:13.594Z,24.27
2023-05-24T12:44:19.716Z,24.35
2023-05-24T12:47:25.052Z,24.55
2023-05-24T12:50:30.723Z,24.49
2023-05-24T12:53:37.252Z,24.32
2023-05-24T12:56:43.593Z,24.30
2023-05-24T12:59:48.725Z,24.53
2023-05-24T13:02:56.329Z,24.43
2023-05-24T13:06:01.629Z,24.65
2023-05-24T13:09:08.225Z,24.56
2023-05-24T13:12:13.621Z,24.78
2023-05-24T13:15:19.640Z,24.67
2023-05-24T13:18:26.343Z,24.73
2023-05-24T13:21:31.522Z,24.66
2023-05-24T13:24:39.375Z,24.77
2023-05-24T13:27:44.604Z,24.89
2023-05-24T13:30:49.784Z,25.46
2023-05-24T13:33:54.958Z,26.84
2023-05-24T13:37:00.789Z,27.56
2023-05-24T13:40:08.976Z,27.35
2023-05-24T13:43:14.065Z,25.97
2023-05-24T13:46:19.195Z,25.73
2023-05-24T13:49:24.799Z,26.81
2023-05-24T13:52:30.820Z,26.31
2023-05-24T13:55:39.077Z,25.92
2023-05-24T13:58:44.548Z,25.63
2023-05-24T14:01:50.846Z,25.29
2023-05-24T14:05:05.241Z,25.43
2023-05-24T14:08:19.037Z,25.37
2023-05-24T14:11:26.372Z,25.12
2023-05-24T14:17:39.719Z,25.34
2023-05-24T14:20:45.173Z,25.54
2023-05-24T14:23:50.728Z,25.41
2023-05-24T14:26:58.321Z,25.51
2023-05-24T14:30:03.561Z,25.31
2023-05-24T14:33:11.533Z,25.23
2023-05-24T14:36:17.015Z,25.55
2023-05-24T14:39:22.289Z,27.75
2023-05-24T14:42:28.782Z,28.49
2023-05-24T14:45:33.895Z,28.34
2023-05-24T14:48:41.556Z,28.63
2023-05-24T14:51:48.449Z,27.03
2023-05-24T14:54:53.606Z,26.24
2023-05-24T14:58:00.377Z,25.66
2023-05-24T15:01:06.784Z,25.57
2023-05-24T15:04:13.345Z,25.36
2023-05-24T15:07:18.492Z,25.20
2023-05-24T15:10:23.731Z,25.05
2023-05-24T15:13:31.220Z,25.17
2023-05-24T15:16:36.480Z,25.03
2023-05-24T15:19:41.867Z,24.97
2023-05-24T15:22:47.291Z,24.91
2023-05-24T15:25:52.991Z,24.91
2023-05-24T15:29:01.305Z,24.97
2023-05-24T15:32:06.764Z,24.92
2023-05-24T15:35:12.952Z,24.77
2023-05-24T15:38:18.762Z,24.89
2023-05-24T15:41:24.239Z,24.85
2023-05-24T15:44:31.008Z,24.80
2023-05-24T15:47:39.664Z,24.62
2023-05-24T15:51:03.636Z,24.70
2023-05-24T15:54:12.380Z,24.64
2023-05-24T15:57:17.509Z,24.41
2023-05-24T16:00:24.081Z,24.43
2023-05-24T16:03:29.317Z,24.33
2023-05-24T16:06:34.620Z,24.16
2023-05-24T16:09:39.693Z,24.18
2023-05-24T16:12:44.747Z,24.19
2023-05-24T16:15:52.248Z,23.87
2023-05-24T16:18:57.459Z,23.79
2023-05-24T16:22:02.538Z,23.68
2023-05-24T16:25:08.360Z,23.72
2023-05-24T16:28:15.157Z,23.60
2023-05-24T16:31:21.982Z,23.75
2023-05-24T16:34:27.349Z,23.82
2023-05-24T16:37:32.448Z,23.65
2023-05-24T16:40:37.738Z,23.55
2023-05-24T16:43:42.941Z,23.52
2023-05-24T16:46:49.686Z,23.49
2023-05-24T16:49:54.835Z,23.42
2023-05-24T16:53:00.023Z,23.40
2023-05-24T16:56:06.080Z,23.16
2023-05-24T16:59:11.215Z,23.19
2023-05-24T17:02:18.041Z,23.08
2023-05-24T17:05:23.252Z,23.09
2023-05-24T17:08:28.948Z,23.01
2023-05-24T17:11:34.103Z,22.84
2023-05-24T17:14:39.399Z,22.71
2023-05-24T17:17:46.028Z,22.74
2023-05-24T17:20:51.463Z,22.60
2023-05-24T17:23:57.205Z,22.60
2023-05-24T17:27:03.824Z,22.49
2023-05-24T17:30:11.557Z,22.37
2023-05-24T17:33:18.400Z,22.35
2023-05-24T17:36:23.602Z,22.30
2023-05-24T17:39:28.701Z,22.35
2023-05-24T17:42:33.825Z,22.23
2023-05-24T17:45:39.332Z,22.19
2023-05-24T17:48:47.782Z,22.20
2023-05-24T17:51:53.058Z,22.08
2023-05-24T17:54:58.572Z,21.91
2023-05-24T17:58:03.994Z,21.69
2023-05-24T18:01:11.260Z,21.68
2023-05-24T18:04:18.164Z,21.59
2023-05-24T18:07:23.353Z,21.50
2023-05-24T18:10:28.609Z,21.35
2023-05-24T18:13:33.746Z,21.41
2023-05-24T18:16:39.434Z,21.31
2023-05-24T18:19:46.348Z,21.03
2023-05-24T18:22:51.539Z,21.17
2023-05-24T18:26:00.435Z,21.06
2023-05-24T18:29:07.085Z,20.87
2023-05-24T18:32:12.327Z,20.90
2023-05-24T18:35:20.852Z,20.71
2023-05-24T18:38:26.112Z,20.90
2023-05-24T18:41:31.385Z,20.68
2023-05-24T18:44:37.909Z,20.74
2023-05-24T18:47:43.114Z,20.59
2023-05-24T18:50:50.916Z,20.63
2023-05-24T18:53:56.914Z,20.50
2023-05-24T18:57:04.548Z,20.50
2023-05-24T19:00:10.716Z,20.34
2023-05-24T19:03:18.432Z,20.30
2023-05-24T19:06:25.491Z,20.34
2023-05-24T19:09:30.876Z,20.14
2023-05-24T19:12:36.060Z,20.10
2023-05-24T19:15:41.796Z,19.92
2023-05-24T19:18:47.257Z,19.90
2023-05-24T19:21:54.194Z,19.98
2023-05-24T19:24:59.733Z,19.83
2023-05-24T19:28:04.962Z,19.77
2023-05-24T19:31:12.152Z,19.86
2023-05-24T19:34:17.657Z,19.70
2023-05-24T19:37:24.620Z,19.70
2023-05-24T19:40:29.763Z,19.79
2023-05-24T19:43:34.902Z,19.72
2023-05-24T19:46:40.359Z,19.67
2023-05-24T19:49:45.665Z,19.47
2023-05-24T19:52:52.438Z,19.48
2023-05-24T19:55:57.732Z,19.46
2023-05-24T19:59:03.235Z,19.35
2023-05-24T20:02:08.959Z,19.29
2023-05-24T20:05:14.164Z,19.34
2023-05-24T20:08:21.690Z,19.26
2023-05-24T20:11:28.147Z,19.19
2023-05-24T20:14:33.338Z,19.14
2023-05-24T20:17:38.503Z,19.06
2023-05-24T20:20:43.655Z,19.16
2023-05-24T20:23:57.677Z,19.03
2023-05-24T20:27:03.985Z,19.08
2023-05-24T20:30:10.732Z,18.96
2023-05-24T20:33:16.717Z,19.04
2023-05-24T20:36:22.260Z,19.06
2023-05-24T20:39:28.802Z,19.01
2023-05-24T20:42:34.204Z,19.03
2023-05-24T20:45:39.380Z,18.94
2023-05-24T20:48:44.986Z,18.98
2023-05-24T20:51:50.103Z,18.94
2023-05-24T20:54:56.586Z,18.77
2023-05-24T20:58:01.793Z,18.69
2023-05-24T21:01:08.377Z,18.78
2023-05-24T21:04:14.489Z,18.62
2023-05-24T21:07:19.645Z,18.53
2023-05-24T21:10:27.906Z,18.44
2023-05-24T21:13:33.065Z,18.60
2023-05-24T21:16:38.312Z,18.51
2023-05-24T21:19:44.162Z,18.36
2023-05-24T21:22:49.262Z,18.42
2023-05-24T21:25:55.816Z,18.54
2023-05-24T21:29:00.938Z,18.48
2023-05-24T21:32:06.424Z,18.51
2023-05-24T21:35:12.328Z,18.37
2023-05-24T21:38:17.601Z,18.35
2023-05-24T21:41:24.661Z,18.37
2023-05-24T21:44:30.100Z,18.29
2023-05-24T21:47:36.130Z,18.32
2023-05-24T21:50:41.246Z,18.29
2023-05-24T21:53:46.549Z,18.28
2023-05-24T21:56:53.094Z,18.26
2023-05-24T21:59:58.144Z,18.30
2023-05-24T22:03:03.442Z,18.27
2023-05-24T22:06:09.565Z,18.34
2023-05-24T22:09:14.797Z,18.34
2023-05-24T22:12:21.302Z,18.32
2023-05-24T22:15:26.619Z,18.28
2023-05-24T22:18:32.461Z,18.24
2023-05-24T22:21:37.843Z,18.21
2023-05-24T22:24:42.903Z,18.18
2023-05-24T22:27:49.662Z,18.18
2023-05-24T22:30:54.877Z,18.10
2023-05-24T22:34:02.342Z,18.12
2023-05-24T22:37:07.918Z,18.14
2023-05-24T22:40:15.087Z,18.08
2023-05-24T22:43:22.092Z,18.11
2023-05-24T22:46:27.440Z,17.97
2023-05-24T22:49:34.120Z,18.05
2023-05-24T22:52:42.509Z,18.08
2023-05-24T22:55:47.670Z,18.05
2023-05-24T22:58:54.234Z,18.05
2023-05-24T23:01:59.388Z,18.11
2023-05-24T23:05:05.400Z,18.16
2023-05-24T23:08:14.235Z,18.07
2023-05-24T23:11:19.708Z,18.10
2023-05-24T23:14:26.169Z,18.15
2023-05-24T23:17:31.332Z,18.23
2023-05-24T23:20:40.127Z,18.29
2023-05-24T23:23:46.261Z,18.23
2023-05-24T23:26:51.574Z,18.20
2023-05-24T23:29:58.178Z,18.19
2023-05-24T23:33:03.391Z,18.20
2023-05-24T23:36:09.948Z,18.23
2023-05-24T23:39:15.389Z,18.18
2023-05-24T23:42:20.678Z,18.18
2023-05-24T23:45:27.528Z,18.17
2023-05-24T23:48:32.757Z,18.09
2023-05-24T23:51:37.977Z,18.00
2023-05-24T23:54:43.054Z,18.11
2023-05-24T23:57:48.470Z,18.09
